createdAt,value
2019-03-20T00:00:13.343Z,99.99
2019-03-20T00:01:13.316Z,99.99
2019-03-20T00:02:13.223Z,99.99
2019-03-20T00:03:13.169Z,99.99
2019-03-20T00:04:13.106Z,99.99
2019-03-20T00:05:13.045Z,99.99
2019-03-20T00:06:13.022Z,99.99
2019-03-20T00:07:12.929Z,99.99
2019-03-20T00:08:12.867Z,99.99
2019-03-20T00:09:12.843Z,99.99
2019-03-20T00:10:12.748Z,99.99
2019-03-20T00:11:12.720Z,99.99
2019-03-20T00:12:12.628Z,99.99
2019-03-20T00:13:12.570Z,99.99
2019-03-20T00:14:12.510Z,99.99
2019-03-20T00:15:12.450Z,99.99
2019-03-20T00:16:12.422Z,99.99
2019-03-20T00:17:12.331Z,99.99
2019-03-20T00:18:12.307Z,99.99
2019-03-20T00:19:12.213Z,99.99
2019-03-20T00:20:12.156Z,99.99
2019-03-20T00:21:12.095Z,99.99
2019-03-20T00:22:12.036Z,99.99
2019-03-20T00:23:12.013Z,99.99
2019-03-20T00:24:11.916Z,99.99
2019-03-20T00:25:11.857Z,99.99
2019-03-20T00:26:11.798Z,99.99
2019-03-20T00:27:11.737Z,99.99
2019-03-20T00:28:11.708Z,99.99
2019-03-20T00:29:11.619Z,99.99
2019-03-20T00:30:11.557Z,99.99
2019-03-20T00:31:11.501Z,99.99
2019-03-20T00:32:11.440Z,99.99
2019-03-20T00:33:11.412Z,99.99
2019-03-20T00:34:11.321Z,99.99
2019-03-20T00:35:11.262Z,99.99
2019-03-20T00:36:11.212Z,99.99
2019-03-20T00:37:11.141Z,99.99
2019-03-20T00:38:11.115Z,99.99
2019-03-20T00:39:11.020Z,99.99
2019-03-20T00:40:10.997Z,99.99
2019-03-20T00:41:10.902Z,99.99
2019-03-20T00:42:10.875Z,99.99
2019-03-20T00:43:10.785Z,99.99
2019-03-20T00:44:10.758Z,99.99
2019-03-20T00:45:10.664Z,99.99
2019-03-20T00:46:10.604Z,99.99
2019-03-20T00:47:10.548Z,99.99
2019-03-20T00:48:10.487Z,99.99
2019-03-20T00:49:10.463Z,99.99
2019-03-20T00:50:10.377Z,99.99
2019-03-20T00:51:10.311Z,99.99
2019-03-20T00:52:10.246Z,99.99
2019-03-20T00:53:10.187Z,99.99
2019-03-20T00:54:10.158Z,99.99
2019-03-20T00:55:10.076Z,99.99
2019-03-20T00:56:10.007Z,99.99
2019-03-20T00:57:09.952Z,99.99
2019-03-20T00:58:09.891Z,99.99
2019-03-20T00:59:09.863Z,99.99
2019-03-20T01:00:09.772Z,99.99
2019-03-20T01:01:09.709Z,99.99
2019-03-20T01:02:09.650Z,99.99
2019-03-20T01:03:09.624Z,99.99
2019-03-20T01:04:09.529Z,99.99
2019-03-20T01:05:12.755Z,99.99
2019-03-20T01:06:09.427Z,99.99
2019-03-20T01:07:10.293Z,99.99
2019-03-20T01:08:09.331Z,99.99
2019-03-20T01:09:09.233Z,99.99
2019-03-20T01:10:09.173Z,99.99
2019-03-20T01:11:09.117Z,99.99
2019-03-20T01:12:09.051Z,99.99
2019-03-20T01:13:09.027Z,99.99
2019-03-20T01:14:08.934Z,99.99
2019-03-20T01:15:08.873Z,99.99
2019-03-20T01:16:08.815Z,99.99
2019-03-20T01:17:08.787Z,99.99
2019-03-20T01:18:08.698Z,99.99
2019-03-20T01:19:08.637Z,99.99
2019-03-20T01:20:08.574Z,99.99
2019-03-20T01:21:08.549Z,99.99
2019-03-20T01:22:08.455Z,99.99
2019-03-20T01:23:08.396Z,99.99
2019-03-20T01:24:08.378Z,99.99
2019-03-20T01:25:08.278Z,99.99
2019-03-20T01:26:08.218Z,99.99
2019-03-20T01:27:08.164Z,99.99
2019-03-20T01:28:08.100Z,99.99
2019-03-20T01:29:08.073Z,99.99
2019-03-20T01:30:07.981Z,99.99
2019-03-20T01:31:08.122Z,99.99
2019-03-20T01:32:07.858Z,99.99
2019-03-20T01:33:07.799Z,99.99
2019-03-20T01:34:07.772Z,99.99
2019-03-20T01:35:07.724Z,99.99
2019-03-20T01:36:07.620Z,99.99
2019-03-20T01:37:07.560Z,99.99
2019-03-20T01:38:07.499Z,99.99
2019-03-20T01:39:07.448Z,99.99
2019-03-20T01:40:07.414Z,99.99
2019-03-20T01:41:07.319Z,99.99
2019-03-20T01:42:07.268Z,99.99
2019-03-20T01:43:07.202Z,99.99
2019-03-20T01:44:07.140Z,99.99
2019-03-20T01:45:07.178Z,99.99
2019-03-20T01:46:07.053Z,99.99
2019-03-20T01:47:07.006Z,99.99
2019-03-20T01:48:06.903Z,99.99
2019-03-20T01:49:06.844Z,99.99
2019-03-20T01:50:06.783Z,99.99
2019-03-20T01:51:06.765Z,99.99
2019-03-20T01:52:06.665Z,99.99
2019-03-20T01:53:06.603Z,99.99
2019-03-20T01:54:06.545Z,99.99
2019-03-20T01:55:06.485Z,99.99
2019-03-20T01:56:06.466Z,99.99
2019-03-20T01:57:06.365Z,99.99
2019-03-20T01:58:06.304Z,99.99
2019-03-20T01:59:06.247Z,99.99
2019-03-20T02:00:06.188Z,99.99
2019-03-20T02:01:06.181Z,99.99
2019-03-20T02:02:06.068Z,99.99
2019-03-20T02:03:06.013Z,99.99
2019-03-20T02:04:05.948Z,99.99
2019-03-20T02:05:05.892Z,99.99
2019-03-20T02:06:05.860Z,99.99
2019-03-20T02:07:05.765Z,99.99
2019-03-20T02:08:05.710Z,99.99
2019-03-20T02:09:05.649Z,99.99
2019-03-20T02:10:05.619Z,99.99
2019-03-20T02:11:05.530Z,99.99
2019-03-20T02:12:05.474Z,99.99
2019-03-20T02:13:05.441Z,99.99
2019-03-20T02:14:05.348Z,99.99
2019-03-20T02:15:05.289Z,99.99
2019-03-20T02:16:05.236Z,99.99
2019-03-20T02:17:05.209Z,99.99
2019-03-20T02:18:05.110Z,99.99
2019-03-20T02:19:05.053Z,99.99
2019-03-20T02:20:04.991Z,99.99
2019-03-20T02:21:04.931Z,99.99
2019-03-20T02:22:04.901Z,99.99
2019-03-20T02:23:04.811Z,99.99
2019-03-20T02:24:04.749Z,99.99
2019-03-20T02:25:04.721Z,99.99
2019-03-20T02:26:04.630Z,99.99
2019-03-20T02:27:04.573Z,99.99
2019-03-20T02:28:04.512Z,99.99
2019-03-20T02:29:04.476Z,99.99
2019-03-20T02:30:04.403Z,99.99
2019-03-20T02:31:04.376Z,99.99
2019-03-20T02:32:04.272Z,99.99
2019-03-20T02:33:04.258Z,99.99
2019-03-20T02:34:04.153Z,99.99
2019-03-20T02:35:04.090Z,99.99
2019-03-20T02:36:04.066Z,99.99
2019-03-20T02:37:03.971Z,99.99
2019-03-20T02:38:03.914Z,99.99
2019-03-20T02:39:03.856Z,99.99
2019-03-20T02:40:03.795Z,99.99
2019-03-20T02:41:03.766Z,99.99
2019-03-20T02:42:03.675Z,99.99
2019-03-20T02:43:03.620Z,99.99
2019-03-20T02:44:03.554Z,99.99
2019-03-20T02:45:03.505Z,99.99
2019-03-20T02:46:03.464Z,99.99
2019-03-20T02:47:03.377Z,99.99
2019-03-20T02:48:03.321Z,99.99
2019-03-20T02:49:03.252Z,99.99
2019-03-20T02:50:03.193Z,99.99
2019-03-20T02:51:03.159Z,99.99
2019-03-20T02:52:04.262Z,99.99
2019-03-20T02:53:03.018Z,99.99
2019-03-20T02:54:02.952Z,99.99
2019-03-20T02:55:02.898Z,99.99
2019-03-20T02:56:02.875Z,99.99
2019-03-20T02:57:02.809Z,99.99
2019-03-20T02:58:02.713Z,99.99
2019-03-20T02:59:02.711Z,99.99
2019-03-20T03:00:02.592Z,99.99
2019-03-20T03:01:02.534Z,99.99
2019-03-20T03:02:02.472Z,99.99
2019-03-20T03:03:02.434Z,99.99
2019-03-20T03:04:02.383Z,99.99
2019-03-20T03:05:02.294Z,99.99
2019-03-20T03:06:07.374Z,99.99
2019-03-20T03:07:02.171Z,99.99
2019-03-20T03:08:02.114Z,99.99
2019-03-20T03:09:02.088Z,99.99
2019-03-20T03:10:02.067Z,99.99
2019-03-20T03:11:01.935Z,99.99
2019-03-20T03:12:02.000Z,99.99
2019-03-20T03:13:01.815Z,99.99
2019-03-20T03:14:01.764Z,99.99
2019-03-20T03:15:01.695Z,99.99
2019-03-20T03:16:01.634Z,99.99
2019-03-20T03:17:01.614Z,99.99
2019-03-20T03:18:01.515Z,99.99
2019-03-20T03:19:01.470Z,99.99
2019-03-20T03:20:01.396Z,99.99
2019-03-20T03:21:01.337Z,99.99
2019-03-20T03:22:01.308Z,99.99
2019-03-20T03:23:01.220Z,99.99
2019-03-20T03:24:01.157Z,99.99
2019-03-20T03:25:01.100Z,99.99
2019-03-20T03:26:01.080Z,99.99
2019-03-20T03:27:00.974Z,99.99
2019-03-20T03:28:00.912Z,99.99
2019-03-20T03:29:00.859Z,99.99
2019-03-20T03:30:00.811Z,99.99
2019-03-20T03:31:00.790Z,99.99
2019-03-20T03:32:00.675Z,99.99
2019-03-20T03:33:00.632Z,99.99
2019-03-20T03:34:00.589Z,99.99
2019-03-20T03:35:01.012Z,99.99
2019-03-20T03:36:00.434Z,99.99
2019-03-20T03:37:00.411Z,99.99
2019-03-20T03:38:00.316Z,99.99
2019-03-20T03:39:00.257Z,99.99
2019-03-20T03:40:00.577Z,99.99
2019-03-20T03:41:00.161Z,99.99
2019-03-20T03:42:00.109Z,99.99
2019-03-20T03:43:00.019Z,99.99
2019-03-20T03:43:59.960Z,99.99
2019-03-20T03:44:59.930Z,99.99
2019-03-20T03:45:59.873Z,99.99
2019-03-20T03:46:59.780Z,99.99
2019-03-20T03:47:59.747Z,99.99
2019-03-20T03:48:59.658Z,99.99
2019-03-20T03:49:59.600Z,99.99
2019-03-20T03:50:59.567Z,99.99
2019-03-20T03:51:59.476Z,99.99
2019-03-20T03:52:59.421Z,99.99
2019-03-20T03:53:59.390Z,99.99
2019-03-20T03:54:59.332Z,99.99
2019-03-20T03:55:59.236Z,99.99
2019-03-20T03:56:59.183Z,99.99
2019-03-20T03:57:59.135Z,99.99
2019-03-20T03:58:59.057Z,99.99
2019-03-20T03:59:59.039Z,99.99
2019-03-20T04:00:58.940Z,99.99
2019-03-20T04:01:58.877Z,99.99
2019-03-20T04:02:58.817Z,99.99
2019-03-20T04:03:58.763Z,99.99
2019-03-20T04:04:58.730Z,99.99
2019-03-20T04:05:58.666Z,99.99
2019-03-20T04:06:58.582Z,99.99
2019-03-20T04:07:58.515Z,99.99
2019-03-20T04:08:58.457Z,99.99
2019-03-20T04:09:58.394Z,99.99
2019-03-20T04:10:58.358Z,99.99
2019-03-20T04:11:58.281Z,99.99
2019-03-20T04:12:58.248Z,99.99
2019-03-20T04:13:58.157Z,99.99
2019-03-20T04:14:58.097Z,99.99
2019-03-20T04:15:58.157Z,99.99
2019-03-20T04:16:57.973Z,99.99
2019-03-20T04:17:57.916Z,99.99
2019-03-20T04:18:57.858Z,99.99
2019-03-20T04:19:57.792Z,99.99
2019-03-20T04:20:57.767Z,99.99
2019-03-20T04:21:57.677Z,99.99
2019-03-20T04:22:57.616Z,99.99
2019-03-20T04:23:57.554Z,99.99
2019-03-20T04:24:57.495Z,99.99
2019-03-20T04:25:57.467Z,99.99
2019-03-20T04:26:57.376Z,99.99
2019-03-20T04:27:57.314Z,99.99
2019-03-20T04:28:57.254Z,99.99
2019-03-20T04:29:57.195Z,99.99
2019-03-20T04:30:57.182Z,99.99
2019-03-20T04:31:57.072Z,99.99
2019-03-20T04:32:57.016Z,99.99
2019-03-20T04:33:57.794Z,99.99
2019-03-20T04:34:56.896Z,99.99
2019-03-20T04:35:56.865Z,99.99
2019-03-20T04:36:56.771Z,99.99
2019-03-20T04:37:56.756Z,99.99
2019-03-20T04:38:56.658Z,99.99
2019-03-20T04:39:56.595Z,99.99
2019-03-20T04:40:56.534Z,99.99
2019-03-20T04:41:56.474Z,99.99
2019-03-20T04:42:56.452Z,99.99
2019-03-20T04:43:56.356Z,99.99
2019-03-20T04:44:56.293Z,99.99
2019-03-20T04:45:56.231Z,99.99
2019-03-20T04:46:56.171Z,99.99
2019-03-20T04:47:56.142Z,99.99
2019-03-20T04:48:56.084Z,99.99
2019-03-20T04:49:55.993Z,99.99
2019-03-20T04:50:55.932Z,99.99
2019-03-20T04:51:55.875Z,99.99
2019-03-20T04:52:55.844Z,99.99
2019-03-20T04:53:55.782Z,99.99
2019-03-20T04:54:55.694Z,99.99
2019-03-20T04:55:55.632Z,99.99
2019-03-20T04:56:55.615Z,99.99
2019-03-20T04:57:55.512Z,99.99
2019-03-20T04:58:55.453Z,99.99
2019-03-20T04:59:55.391Z,99.99
2019-03-20T05:00:55.335Z,99.99
2019-03-20T05:01:55.304Z,99.99
2019-03-20T05:02:55.211Z,99.99
2019-03-20T05:03:55.152Z,99.99
2019-03-20T05:04:55.132Z,99.99
2019-03-20T05:05:55.086Z,99.99
2019-03-20T05:06:59.225Z,99.99
2019-03-20T05:07:54.910Z,99.99
2019-03-20T05:08:54.935Z,99.99
2019-03-20T05:09:54.791Z,99.99
2019-03-20T05:10:54.731Z,99.99
2019-03-20T05:11:54.671Z,99.99
2019-03-20T05:12:54.610Z,99.99
2019-03-20T05:13:54.585Z,99.99
2019-03-20T05:14:54.529Z,99.99
2019-03-20T05:15:54.429Z,99.99
2019-03-20T05:16:54.371Z,99.99
2019-03-20T05:17:54.313Z,99.99
2019-03-20T05:18:54.253Z,99.99
2019-03-20T05:19:54.226Z,99.99
2019-03-20T05:20:54.129Z,99.99
2019-03-20T05:21:54.076Z,99.99
2019-03-20T05:22:54.010Z,99.99
2019-03-20T05:23:53.951Z,99.99
2019-03-20T05:24:53.928Z,99.99
2019-03-20T05:25:53.829Z,99.99
2019-03-20T05:26:53.769Z,99.99
2019-03-20T05:27:53.712Z,99.99
2019-03-20T05:28:53.647Z,99.99
2019-03-20T05:29:53.620Z,99.99
2019-03-20T05:30:53.529Z,99.99
2019-03-20T05:31:53.466Z,99.99
2019-03-20T05:32:53.440Z,99.99
2019-03-20T05:33:53.351Z,99.99
2019-03-20T05:34:53.302Z,99.99
2019-03-20T05:35:53.258Z,99.99
2019-03-20T05:36:53.171Z,99.99
2019-03-20T05:37:53.111Z,99.99
2019-03-20T05:38:53.051Z,99.99
2019-03-20T05:39:53.019Z,99.99
2019-03-20T05:40:52.965Z,99.99
2019-03-20T05:41:52.908Z,99.99
2019-03-20T05:42:52.808Z,99.99
2019-03-20T05:43:52.747Z,99.99
2019-03-20T05:44:52.709Z,99.99
2019-03-20T05:45:52.626Z,99.99
2019-03-20T05:46:52.647Z,99.99
2019-03-20T05:47:52.506Z,99.99
2019-03-20T05:48:52.445Z,99.99
2019-03-20T05:49:52.386Z,99.99
2019-03-20T05:50:52.365Z,99.99
2019-03-20T05:51:52.265Z,99.99
2019-03-20T05:52:52.212Z,99.99
2019-03-20T05:53:52.147Z,99.99
2019-03-20T05:54:52.088Z,99.99
2019-03-20T05:55:52.059Z,99.99
2019-03-20T05:56:51.967Z,99.99
2019-03-20T05:57:51.907Z,99.99
2019-03-20T05:58:51.848Z,99.99
2019-03-20T05:59:51.784Z,99.99
2019-03-20T06:00:51.758Z,99.99
2019-03-20T06:01:51.689Z,99.99
2019-03-20T06:02:51.607Z,99.99
2019-03-20T06:03:51.545Z,99.99
2019-03-20T06:04:51.488Z,99.99
2019-03-20T06:05:51.459Z,99.99
2019-03-20T06:06:51.366Z,99.99
2019-03-20T06:07:51.347Z,99.99
2019-03-20T06:08:51.251Z,99.99
2019-03-20T06:09:51.186Z,99.99
2019-03-20T06:10:51.128Z,99.99
2019-03-20T06:11:51.072Z,99.99
2019-03-20T06:12:51.047Z,99.99
2019-03-20T06:13:50.948Z,99.99
2019-03-20T06:14:50.891Z,99.99
2019-03-20T06:15:50.826Z,99.99
2019-03-20T06:16:50.771Z,99.99
2019-03-20T06:17:50.737Z,99.99
2019-03-20T06:18:50.647Z,99.99
2019-03-20T06:19:50.587Z,99.99
2019-03-20T06:20:50.557Z,99.99
2019-03-20T06:21:50.472Z,99.99
2019-03-20T06:22:50.405Z,99.99
2019-03-20T06:23:50.346Z,99.99
2019-03-20T06:24:50.293Z,99.99
2019-03-20T06:25:51.481Z,99.99
2019-03-20T06:26:50.202Z,99.99
2019-03-20T06:27:50.111Z,99.99
2019-03-20T06:28:50.046Z,99.99
2019-03-20T06:29:49.987Z,99.99
2019-03-20T06:30:49.961Z,99.99
2019-03-20T06:31:49.873Z,99.99
2019-03-20T06:32:49.810Z,99.99
2019-03-20T06:33:49.750Z,99.99
2019-03-20T06:34:49.694Z,99.99
2019-03-20T06:35:49.663Z,99.99
2019-03-20T06:36:49.602Z,99.99
2019-03-20T06:37:49.516Z,99.99
2019-03-20T06:38:49.452Z,99.99
2019-03-20T06:39:49.392Z,99.99
2019-03-20T06:40:49.362Z,99.99
2019-03-20T06:41:49.304Z,99.99
2019-03-20T06:42:49.215Z,99.99
2019-03-20T06:43:49.156Z,99.99
2019-03-20T06:44:49.093Z,99.99
2019-03-20T06:45:49.039Z,99.99
2019-03-20T06:46:49.064Z,99.99
2019-03-20T06:47:48.914Z,99.99
2019-03-20T06:48:48.862Z,99.99
2019-03-20T06:49:48.797Z,99.99
2019-03-20T06:50:48.738Z,99.99
2019-03-20T06:51:48.714Z,99.99
2019-03-20T06:52:48.622Z,99.99
2019-03-20T06:53:48.595Z,99.99
2019-03-20T06:54:48.536Z,99.99
2019-03-20T06:55:48.444Z,99.99
2019-03-20T06:56:48.482Z,99.99
2019-03-20T06:57:48.330Z,99.99
2019-03-20T06:58:48.272Z,99.99
2019-03-20T06:59:48.241Z,99.99
2019-03-20T07:00:48.149Z,99.99
2019-03-20T07:01:48.091Z,99.99
2019-03-20T07:02:48.071Z,99.99
2019-03-20T07:03:47.974Z,99.99
2019-03-20T07:04:47.916Z,99.99
2019-03-20T07:05:47.891Z,99.99
2019-03-20T07:06:47.797Z,99.99
2019-03-20T07:07:47.741Z,99.99
2019-03-20T07:08:47.682Z,99.99
2019-03-20T07:09:47.624Z,99.99
2019-03-20T07:10:47.605Z,99.99
2019-03-20T07:11:47.507Z,99.99
2019-03-20T07:12:47.446Z,99.99
2019-03-20T07:13:47.394Z,99.99
2019-03-20T07:14:47.336Z,99.99
2019-03-20T07:15:47.304Z,99.99
2019-03-20T07:16:47.216Z,99.99
2019-03-20T07:17:47.158Z,99.99
2019-03-20T07:18:47.100Z,99.99
2019-03-20T07:19:47.072Z,99.99
2019-03-20T07:20:46.985Z,99.99
2019-03-20T07:21:46.957Z,99.99
2019-03-20T07:22:46.869Z,99.99
2019-03-20T07:23:46.841Z,99.99
2019-03-20T07:24:46.759Z,99.99
2019-03-20T07:25:46.696Z,99.99
2019-03-20T07:26:46.658Z,99.99
2019-03-20T07:27:46.578Z,99.99
2019-03-20T07:28:46.555Z,99.99
2019-03-20T07:29:46.464Z,99.99
2019-03-20T07:30:46.408Z,99.99
2019-03-20T07:31:46.381Z,99.99
2019-03-20T07:32:46.293Z,99.99
2019-03-20T07:33:46.237Z,99.99
2019-03-20T07:34:46.181Z,99.99
2019-03-20T07:35:46.127Z,99.99
2019-03-20T07:36:46.103Z,99.99
2019-03-20T07:37:55.515Z,99.99
2019-03-20T07:38:45.956Z,99.99
2019-03-20T07:39:45.903Z,99.99
2019-03-20T07:40:45.846Z,99.99
2019-03-20T07:41:45.822Z,99.99
2019-03-20T07:42:45.764Z,99.99
2019-03-20T07:43:45.676Z,99.99
2019-03-20T07:44:45.622Z,99.99
2019-03-20T07:45:45.568Z,99.99
2019-03-20T07:46:45.545Z,99.99
2019-03-20T07:47:45.462Z,99.99
2019-03-20T07:48:45.430Z,99.99
2019-03-20T07:49:45.374Z,99.99
2019-03-20T07:50:45.290Z,99.99
2019-03-20T07:51:45.233Z,99.99
2019-03-20T07:52:45.222Z,99.99
2019-03-20T07:53:45.123Z,99.99
2019-03-20T07:54:45.071Z,99.99
2019-03-20T07:55:45.015Z,99.99
2019-03-20T07:56:44.963Z,99.99
2019-03-20T07:57:44.939Z,99.99
2019-03-20T07:58:44.850Z,99.99
2019-03-20T07:59:44.797Z,99.35
2019-03-20T08:00:44.742Z,99.54
2019-03-20T08:01:44.686Z,99.26
2019-03-20T08:02:44.665Z,98.02
2019-03-20T08:03:44.578Z,96.03
2019-03-20T08:04:44.524Z,94.70
2019-03-20T08:05:44.496Z,96.26
2019-03-20T08:06:44.415Z,96.08
2019-03-20T08:07:44.395Z,94.46
2019-03-20T08:08:44.306Z,94.42
2019-03-20T08:09:44.253Z,92.89
2019-03-20T08:10:44.199Z,86.84
2019-03-20T08:11:44.152Z,81.46
2019-03-20T08:12:44.128Z,78.25
2019-03-20T08:13:44.044Z,74.63
2019-03-20T08:14:44.023Z,73.62
2019-03-20T08:15:43.939Z,70.51
2019-03-20T08:16:43.891Z,71.12
2019-03-20T08:17:43.875Z,69.72
2019-03-20T08:18:43.795Z,65.42
2019-03-20T08:19:43.776Z,64.02
2019-03-20T08:20:43.696Z,64.43
2019-03-20T08:21:43.654Z,63.42
2019-03-20T08:22:43.611Z,61.02
2019-03-20T08:23:43.564Z,59.72
2019-03-20T08:24:43.549Z,58.69
2019-03-20T08:25:43.476Z,58.72
2019-03-20T08:26:43.460Z,55.34
2019-03-20T08:27:43.387Z,55.85
2019-03-20T08:28:43.343Z,54.96
2019-03-20T08:29:43.337Z,54.48
2019-03-20T08:30:43.260Z,54.22
2019-03-20T08:31:43.218Z,54.89
2019-03-20T08:32:43.178Z,52.97
2019-03-20T08:33:43.136Z,52.14
2019-03-20T08:34:43.146Z,52.62
2019-03-20T08:35:43.053Z,51.75
2019-03-20T08:36:43.019Z,50.73
2019-03-20T08:37:42.981Z,50.32
2019-03-20T08:38:42.937Z,51.40
2019-03-20T08:39:42.925Z,49.96
2019-03-20T08:40:42.856Z,47.94
2019-03-20T08:41:42.841Z,47.77
2019-03-20T08:42:42.811Z,46.72
2019-03-20T08:43:42.771Z,48.07
2019-03-20T08:44:42.698Z,49.02
2019-03-20T08:45:42.689Z,47.87
2019-03-20T08:46:42.649Z,47.49
2019-03-20T08:47:42.578Z,47.37
2019-03-20T08:48:42.538Z,47.08
2019-03-20T08:49:42.609Z,47.66
2019-03-20T08:50:42.462Z,47.46
2019-03-20T08:51:42.420Z,47.17
2019-03-20T08:52:42.382Z,47.46
2019-03-20T08:53:42.374Z,47.39
2019-03-20T08:54:42.310Z,47.61
2019-03-20T08:55:42.264Z,45.98
2019-03-20T08:56:42.225Z,45.81
2019-03-20T08:57:42.217Z,45.21
2019-03-20T08:58:42.149Z,45.11
2019-03-20T08:59:42.108Z,45.00
2019-03-20T09:00:42.071Z,45.37
2019-03-20T09:01:42.059Z,45.50
2019-03-20T09:02:41.989Z,45.50
2019-03-20T09:03:41.948Z,45.00
2019-03-20T09:04:41.935Z,45.01
2019-03-20T09:05:41.870Z,45.11
2019-03-20T09:06:41.866Z,45.28
2019-03-20T09:07:47.097Z,45.01
2019-03-20T09:08:41.752Z,44.13
2019-03-20T09:09:41.753Z,44.13
2019-03-20T09:10:41.671Z,44.03
2019-03-20T09:11:41.638Z,45.47
2019-03-20T09:12:41.590Z,45.67
2019-03-20T09:13:41.583Z,45.28
2019-03-20T09:14:41.533Z,44.23
2019-03-20T09:15:41.473Z,45.18
2019-03-20T09:16:41.460Z,45.50
2019-03-20T09:17:41.385Z,45.30
2019-03-20T09:18:41.346Z,43.96
2019-03-20T09:19:41.305Z,44.08
2019-03-20T09:20:41.263Z,43.50
2019-03-20T09:21:41.255Z,42.35
2019-03-20T09:22:41.182Z,43.40
2019-03-20T09:23:41.140Z,43.43
2019-03-20T09:24:41.098Z,43.26
2019-03-20T09:25:41.088Z,42.30
2019-03-20T09:26:41.014Z,42.47
2019-03-20T09:27:40.974Z,42.66
2019-03-20T09:28:40.933Z,42.27
2019-03-20T09:29:41.260Z,43.64
2019-03-20T09:30:40.849Z,43.84
2019-03-20T09:31:40.806Z,44.22
2019-03-20T09:32:40.767Z,44.43
2019-03-20T09:33:40.723Z,45.13
2019-03-20T09:34:40.714Z,44.67
2019-03-20T09:35:40.672Z,43.82
2019-03-20T09:36:43.470Z,44.02
2019-03-20T09:37:50.963Z,43.54
2019-03-20T09:38:43.786Z,42.97
2019-03-20T09:39:40.471Z,42.79
2019-03-20T09:40:40.460Z,41.44
2019-03-20T09:41:40.387Z,41.44
2019-03-20T09:42:40.345Z,43.27
2019-03-20T09:43:40.299Z,43.77
2019-03-20T09:44:40.267Z,45.21
2019-03-20T09:45:40.260Z,43.98
2019-03-20T09:46:40.173Z,43.02
2019-03-20T09:47:40.130Z,42.25
2019-03-20T09:48:40.094Z,42.05
2019-03-20T09:49:40.050Z,41.98
2019-03-20T09:50:40.042Z,41.23
2019-03-20T09:51:39.997Z,41.23
2019-03-20T09:52:39.926Z,40.36
2019-03-20T09:53:39.883Z,40.84
2019-03-20T09:54:39.837Z,40.17
2019-03-20T09:55:39.793Z,40.63
2019-03-20T09:56:39.782Z,42.18
2019-03-20T09:57:39.713Z,40.44
2019-03-20T09:58:39.667Z,41.28
2019-03-20T09:59:39.659Z,42.13
2019-03-20T10:00:39.623Z,41.75
2019-03-20T10:01:39.541Z,39.61
2019-03-20T10:02:39.500Z,38.81
2019-03-20T10:03:39.458Z,40.36
2019-03-20T10:04:39.415Z,42.55
2019-03-20T10:05:39.403Z,41.88
2019-03-20T10:06:39.331Z,42.63
2019-03-20T10:07:39.328Z,43.30
2019-03-20T10:08:39.246Z,42.32
2019-03-20T10:09:39.200Z,42.05
2019-03-20T10:10:39.159Z,41.06
2019-03-20T10:11:39.118Z,40.37
2019-03-20T10:12:39.102Z,40.64
2019-03-20T10:13:39.073Z,41.12
2019-03-20T10:14:38.986Z,42.47
2019-03-20T10:15:38.945Z,43.43
2019-03-20T10:16:38.900Z,43.16
2019-03-20T10:17:38.861Z,42.58
2019-03-20T10:18:38.851Z,42.87
2019-03-20T10:19:38.769Z,43.35
2019-03-20T10:20:38.759Z,46.06
2019-03-20T10:21:38.685Z,42.39
2019-03-20T10:22:39.091Z,43.64
2019-03-20T10:23:38.600Z,43.74
2019-03-20T10:24:38.554Z,44.51
2019-03-20T10:25:44.433Z,45.56
2019-03-20T10:26:38.467Z,45.18
2019-03-20T10:27:38.422Z,45.10
2019-03-20T10:28:38.379Z,44.24
2019-03-20T10:29:38.366Z,43.68
2019-03-20T10:30:38.294Z,44.45
2019-03-20T10:31:38.249Z,45.13
2019-03-20T10:32:38.206Z,42.89
2019-03-20T10:33:38.161Z,40.78
2019-03-20T10:34:39.702Z,38.79
2019-03-20T10:35:38.126Z,40.50
2019-03-20T10:36:38.032Z,41.73
2019-03-20T10:37:37.991Z,41.06
2019-03-20T10:38:37.960Z,40.94
2019-03-20T10:39:37.900Z,42.19
2019-03-20T10:40:37.881Z,43.82
2019-03-20T10:41:37.813Z,43.34
2019-03-20T10:42:37.800Z,43.91
2019-03-20T10:43:37.724Z,44.68
2019-03-20T10:44:37.681Z,44.03
2019-03-20T10:45:37.635Z,43.48
2019-03-20T10:46:37.592Z,42.43
2019-03-20T10:47:37.584Z,42.52
2019-03-20T10:48:37.507Z,41.67
2019-03-20T10:49:37.473Z,43.60
2019-03-20T10:50:37.446Z,44.68
2019-03-20T10:51:37.370Z,45.25
2019-03-20T10:52:37.370Z,41.12
2019-03-20T10:53:37.288Z,40.12
2019-03-20T10:54:37.241Z,40.48
2019-03-20T10:55:37.197Z,42.50
2019-03-20T10:56:37.159Z,42.40
2019-03-20T10:57:37.141Z,41.23
2019-03-20T10:58:37.062Z,42.46
2019-03-20T10:59:37.020Z,43.99
2019-03-20T11:00:36.973Z,45.36
2019-03-20T11:01:42.583Z,45.47
2019-03-20T11:02:36.912Z,44.03
2019-03-20T11:03:36.841Z,43.87
2019-03-20T11:04:36.795Z,45.98
2019-03-20T11:05:36.751Z,45.52
2019-03-20T11:06:36.760Z,45.52
2019-03-20T11:07:36.664Z,45.04
2019-03-20T11:08:36.630Z,45.04
2019-03-20T11:09:36.612Z,45.25
2019-03-20T11:10:36.531Z,41.22
2019-03-20T11:11:36.487Z,42.54
2019-03-20T11:12:36.443Z,44.08
2019-03-20T11:13:36.396Z,45.25
2019-03-20T11:14:36.387Z,45.06
2019-03-20T11:15:36.308Z,45.06
2019-03-20T11:16:36.263Z,45.06
2019-03-20T11:17:36.221Z,45.35
2019-03-20T11:18:36.177Z,45.73
2019-03-20T11:19:36.164Z,45.71
2019-03-20T11:20:36.129Z,43.91
2019-03-20T11:21:36.049Z,41.70
2019-03-20T11:22:35.999Z,42.18
2019-03-20T11:23:35.957Z,42.87
2019-03-20T11:24:35.912Z,44.51
2019-03-20T11:25:35.898Z,43.45
2019-03-20T11:26:35.823Z,42.37
2019-03-20T11:27:35.792Z,41.22
2019-03-20T11:28:35.731Z,41.10
2019-03-20T11:29:35.723Z,40.83
2019-03-20T11:30:35.680Z,41.43
2019-03-20T11:31:35.636Z,41.53
2019-03-20T11:32:35.560Z,40.56
2019-03-20T11:33:35.548Z,39.58
2019-03-20T11:34:35.473Z,39.76
2019-03-20T11:35:35.432Z,39.76
2019-03-20T11:36:35.385Z,40.50
2019-03-20T11:37:35.341Z,40.79
2019-03-20T11:38:35.329Z,43.70
2019-03-20T11:39:35.252Z,42.71
2019-03-20T11:40:35.240Z,42.81
2019-03-20T11:41:35.197Z,42.90
2019-03-20T11:42:35.126Z,43.87
2019-03-20T11:43:35.077Z,46.07
2019-03-20T11:44:35.036Z,45.14
2019-03-20T11:45:34.989Z,43.40
2019-03-20T11:46:35.070Z,41.70
2019-03-20T11:47:34.902Z,43.33
2019-03-20T11:48:34.855Z,43.14
2019-03-20T11:49:34.812Z,41.99
2019-03-20T11:50:34.774Z,42.47
2019-03-20T11:51:34.776Z,42.56
2019-03-20T11:52:34.685Z,44.00
2019-03-20T11:53:34.645Z,42.97
2019-03-20T11:54:34.594Z,42.50
2019-03-20T11:55:34.551Z,42.50
2019-03-20T11:56:34.535Z,42.33
2019-03-20T11:57:34.494Z,41.18
2019-03-20T11:58:34.759Z,41.16
2019-03-20T11:59:34.375Z,42.87
2019-03-20T12:00:34.334Z,40.20
2019-03-20T12:01:34.289Z,42.41
2019-03-20T12:02:34.267Z,43.37
2019-03-20T12:03:34.248Z,44.34
2019-03-20T12:04:34.157Z,43.66
2019-03-20T12:05:34.112Z,42.77
2019-03-20T12:06:34.078Z,42.87
2019-03-20T12:07:34.027Z,41.99
2019-03-20T12:08:34.013Z,44.10
2019-03-20T12:09:41.029Z,45.14
2019-03-20T12:10:33.903Z,44.17
2019-03-20T12:11:45.207Z,42.61
2019-03-20T12:12:33.851Z,43.77
2019-03-20T12:13:33.763Z,44.92
2019-03-20T12:14:33.720Z,44.82
2019-03-20T12:15:33.674Z,41.58
2019-03-20T12:16:33.637Z,43.60
2019-03-20T12:17:33.623Z,42.25
2019-03-20T12:18:33.587Z,42.83
2019-03-20T12:19:44.483Z,43.31
2019-03-20T12:20:33.463Z,41.77
2019-03-20T12:21:33.414Z,41.20
2019-03-20T12:22:33.369Z,41.10
2019-03-20T12:23:33.822Z,40.02
2019-03-20T12:24:33.285Z,39.04
2019-03-20T12:25:33.240Z,40.48
2019-03-20T12:26:33.195Z,39.41
2019-03-20T12:27:33.152Z,39.98
2019-03-20T12:28:33.140Z,41.80
2019-03-20T12:29:33.069Z,42.00
2019-03-20T12:30:33.053Z,42.11
2019-03-20T12:31:32.979Z,40.20
2019-03-20T12:32:32.932Z,40.96
2019-03-20T12:33:32.889Z,41.44
2019-03-20T12:34:32.913Z,42.43
2019-03-20T12:35:32.798Z,41.94
2019-03-20T12:36:32.787Z,41.56
2019-03-20T12:37:32.709Z,41.39
2019-03-20T12:38:32.667Z,41.87
2019-03-20T12:39:32.629Z,43.79
2019-03-20T12:40:32.612Z,42.35
2019-03-20T12:41:32.536Z,42.64
2019-03-20T12:42:32.500Z,39.47
2019-03-20T12:43:32.451Z,39.18
2019-03-20T12:44:32.401Z,38.89
2019-03-20T12:45:32.387Z,39.28
2019-03-20T12:46:41.433Z,40.72
2019-03-20T12:47:32.270Z,39.76
2019-03-20T12:48:32.225Z,38.91
2019-03-20T12:49:32.179Z,41.12
2019-03-20T12:50:32.177Z,40.83
2019-03-20T12:51:32.154Z,40.81